Time;durP1;ratioP1;P1;durP2;ratioP2;P2;SDS_P1;SDS_P2;PMS_P1;PMS_P2;Temp;Humidity;BMP_temperature;BMP_pressure;BME280_temperature;BME280_humidity;BME280_pressure;Samples;Min_cycle;Max_cycle;Signal;HPM_P1;HPM_P2
2020/12/19 00:01:32;;;;;;;16.40;11.70;;;;;;;;;;5069717;28;20284;-80
2020/12/19 00:03:59;;;;;;;15.85;11.30;;;;;;;;;;5070311;28;20225;-80
2020/12/19 00:06:26;;;;;;;15.50;11.25;;;;;;;;;;5069948;28;20241;-82
2020/12/19 00:08:53;;;;;;;16.50;11.25;;;;;;;;;;5070863;28;20186;-80
2020/12/19 00:11:19;;;;;;;16.60;12.65;;;;;;;;;;5071380;28;20284;-82
2020/12/19 00:13:46;;;;;;;17.63;11.48;;;;;;;;;;5071250;28;20287;-85
2020/12/19 00:16:15;;;;;;;16.33;10.43;;;;;;;;;;5072892;28;20250;-78
2020/12/19 00:18:43;;;;;;;17.13;11.73;;;;;;;;;;5070527;28;20186;-81
2020/12/19 00:21:10;;;;;;;17.92;10.93;;;;;;;;;;5066812;28;20247;-82
2020/12/19 00:23:36;;;;;;;17.92;10.98;;;;;;;;;;5069329;28;20228;-82
2020/12/19 00:26:04;;;;;;;17.75;12.32;;;;;;;;;;5070046;28;20250;-78
2020/12/19 00:28:31;;;;;;;15.45;11.23;;;;;;;;;;5070396;28;20308;-78
2020/12/19 00:30:57;;;;;;;16.35;11.82;;;;;;;;;;5063467;28;20816;-78
2020/12/19 00:33:24;;;;;;;19.02;12.25;;;;;;;;;;5070170;28;20707;-81
2020/12/19 00:35:52;;;;;;;19.10;11.98;;;;;;;;;;5072158;28;20193;-82
2020/12/19 00:38:19;;;;;;;18.77;12.02;;;;;;;;;;5072194;28;20285;-81
2020/12/19 00:40:45;;;;;;;14.95;11.13;;;;;;;;;;5070101;28;20190;-83
2020/12/19 00:43:12;;;;;;;15.15;11.02;;;;;;;;;;5066110;28;21211;-79
2020/12/19 00:45:39;;;;;;;16.02;11.10;;;;;;;;;;5068802;28;20199;-79
2020/12/19 00:48:06;;;;;;;16.95;11.48;;;;;;;;;;5069829;28;20194;-84
2020/12/19 00:50:33;;;;;;;15.98;10.70;;;;;;;;;;5070019;28;20208;-78
2020/12/19 00:53:00;;;;;;;16.15;10.77;;;;;;;;;;5070110;28;20271;-78
2020/12/19 00:55:27;;;;;;;16.33;11.20;;;;;;;;;;5072678;28;20205;-80
2020/12/19 00:57:54;;;;;;;16.52;10.40;;;;;;;;;;5074945;28;20550;-80
2020/12/19 01:00:21;;;;;;;15.45;11.18;;;;;;;;;;5071969;28;20243;-78
2020/12/19 01:02:47;;;;;;;16.60;11.50;;;;;;;;;;5069593;28;20233;-79
2020/12/19 01:05:14;;;;;;;16.65;10.70;;;;;;;;;;5066128;28;20194;-79
2020/12/19 01:07:41;;;;;;;13.38;10.55;;;;;;;;;;5068521;28;20202;-82
2020/12/19 01:10:10;;;;;;;15.57;10.63;;;;;;;;;;5068424;28;20191;-84
2020/12/19 01:12:37;;;;;;;14.30;11.07;;;;;;;;;;5068400;28;20211;-86
2020/12/19 01:15:04;;;;;;;15.45;11.30;;;;;;;;;;5069741;28;20703;-81
2020/12/19 01:17:31;;;;;;;14.93;10.73;;;;;;;;;;5071540;28;20217;-80
2020/12/19 01:19:59;;;;;;;14.30;10.25;;;;;;;;;;5071719;28;20371;-77
2020/12/19 01:22:26;;;;;;;14.30;10.85;;;;;;;;;;5071390;28;20246;-81
2020/12/19 01:24:53;;;;;;;14.25;10.75;;;;;;;;;;5069420;28;20264;-79
2020/12/19 01:27:21;;;;;;;15.75;11.32;;;;;;;;;;5066025;28;20600;-78
2020/12/19 01:29:48;;;;;;;13.35;10.10;;;;;;;;;;5068415;28;20200;-79
2020/12/19 01:32:14;;;;;;;15.23;10.00;;;;;;;;;;5069220;28;20606;-79
2020/12/19 01:34:41;;;;;;;12.38;10.00;;;;;;;;;;5069597;28;20218;-83
2020/12/19 01:37:08;;;;;;;15.38;10.27;;;;;;;;;;5069413;28;20198;-84
2020/12/19 01:39:35;;;;;;;12.57;10.32;;;;;;;;;;5071463;28;20546;-82
2020/12/19 01:42:02;;;;;;;17.17;10.55;;;;;;;;;;5071504;28;20603;-77
2020/12/19 01:44:29;;;;;;;15.40;11.50;;;;;;;;;;5071329;28;20224;-76
2020/12/19 01:46:57;;;;;;;13.27;10.35;;;;;;;;;;5068958;28;20661;-77
2020/12/19 01:49:24;;;;;;;13.93;10.57;;;;;;;;;;5065641;28;20647;-81
2020/12/19 01:51:52;;;;;;;16.05;10.25;;;;;;;;;;5068418;28;20195;-81
2020/12/19 01:54:21;;;;;;;16.60;11.10;;;;;;;;;;5068885;28;20217;-77
2020/12/19 01:56:49;;;;;;;19.27;10.65;;;;;;;;;;5069299;28;20279;-77
2020/12/19 01:59:16;;;;;;;13.00;9.30;;;;;;;;;;5069382;28;20198;-77
2020/12/19 02:01:45;;;;;;;12.95;9.63;;;;;;;;;;5071779;28;20200;-78
2020/12/19 02:04:12;;;;;;;13.35;9.80;;;;;;;;;;5071283;28;20238;-77
2020/12/19 02:06:40;;;;;;;15.60;9.98;;;;;;;;;;5071294;28;20264;-78
2020/12/19 02:09:08;;;;;;;16.15;10.93;;;;;;;;;;5068973;28;20285;-81
2020/12/19 02:11:35;;;;;;;12.70;9.57;;;;;;;;;;5065469;28;20203;-77
2020/12/19 02:14:01;;;;;;;14.40;10.75;;;;;;;;;;5067738;28;20219;-78
2020/12/19 02:16:28;;;;;;;15.93;10.02;;;;;;;;;;5069200;28;20200;-76
2020/12/19 02:18:56;;;;;;;14.93;10.98;;;;;;;;;;5068821;28;20196;-78
2020/12/19 02:21:23;;;;;;;15.93;11.27;;;;;;;;;;5069015;28;20203;-81
2020/12/19 02:23:50;;;;;;;13.82;11.23;;;;;;;;;;5070743;28;20300;-81
2020/12/19 02:26:17;;;;;;;15.23;10.55;;;;;;;;;;5071005;28;20191;-76
2020/12/19 02:28:44;;;;;;;14.68;10.80;;;;;;;;;;5070883;28;20725;-79
2020/12/19 02:31:11;;;;;;;15.40;10.88;;;;;;;;;;5071871;28;20203;-77
2020/12/19 02:33:38;;;;;;;16.17;10.43;;;;;;;;;;5069219;28;20272;-78
2020/12/19 02:36:04;;;;;;;13.55;10.85;;;;;;;;;;5071903;28;20195;-80
2020/12/19 02:38:31;;;;;;;14.75;10.80;;;;;;;;;;5072386;28;20200;-77
2020/12/19 02:40:59;;;;;;;15.50;9.77;;;;;;;;;;5072175;28;20379;-78
2020/12/19 02:43:26;;;;;;;16.65;11.50;;;;;;;;;;5071931;28;20508;-77
2020/12/19 02:45:53;;;;;;;15.30;11.25;;;;;;;;;;5074482;28;20289;-78
2020/12/19 02:48:20;;;;;;;15.38;10.63;;;;;;;;;;5074331;28;20195;-77
2020/12/19 02:50:46;;;;;;;16.02;11.85;;;;;;;;;;5074385;28;20276;-79
2020/12/19 02:53:13;;;;;;;16.30;11.15;;;;;;;;;;5071626;28;20250;-81
2020/12/19 02:55:40;;;;;;;16.05;11.02;;;;;;;;;;5068431;28;20259;-77
2020/12/19 02:58:08;;;;;;;16.10;11.38;;;;;;;;;;5071281;28;20198;-76
2020/12/19 03:00:34;;;;;;;16.38;12.20;;;;;;;;;;5071789;28;20202;-77
2020/12/19 03:03:01;;;;;;;15.27;10.38;;;;;;;;;;5071798;28;20311;-77
2020/12/19 03:05:28;;;;;;;15.30;11.32;;;;;;;;;;5071934;28;20288;-78
2020/12/19 03:07:55;;;;;;;15.10;11.32;;;;;;;;;;5073990;28;20200;-76
2020/12/19 03:10:22;;;;;;;14.95;11.80;;;;;;;;;;5074000;28;20562;-78
2020/12/19 03:12:48;;;;;;;18.95;12.75;;;;;;;;;;5074269;28;20288;-76
2020/12/19 03:15:16;;;;;;;16.75;11.45;;;;;;;;;;5071588;28;20237;-77
2020/12/19 03:17:43;;;;;;;15.77;12.38;;;;;;;;;;5068026;28;20190;-77
2020/12/19 03:20:10;;;;;;;17.70;12.73;;;;;;;;;;5070805;28;20206;-78
2020/12/19 03:22:37;;;;;;;18.25;12.80;;;;;;;;;;5071399;28;20225;-76
2020/12/19 03:25:04;;;;;;;14.80;10.75;;;;;;;;;;5071366;28;20263;-78
2020/12/19 03:27:31;;;;;;;17.70;12.15;;;;;;;;;;5071494;28;20193;-77
2020/12/19 03:29:57;;;;;;;17.63;12.50;;;;;;;;;;5073671;28;20614;-76
2020/12/19 03:32:25;;;;;;;15.70;11.57;;;;;;;;;;5073646;28;20198;-77
2020/12/19 03:34:52;;;;;;;15.45;11.65;;;;;;;;;;5073331;28;20255;-77
2020/12/19 03:37:18;;;;;;;19.42;12.90;;;;;;;;;;5071048;28;20201;-77
2020/12/19 03:39:45;;;;;;;16.38;11.63;;;;;;;;;;5067377;28;20182;-76
2020/12/19 03:42:12;;;;;;;16.60;11.95;;;;;;;;;;5070419;28;20307;-77
2020/12/19 03:44:39;;;;;;;16.00;12.18;;;;;;;;;;5070985;28;20228;-76
2020/12/19 03:47:06;;;;;;;15.43;12.13;;;;;;;;;;5070999;28;20189;-77
2020/12/19 03:49:34;;;;;;;15.18;11.15;;;;;;;;;;5071216;28;20221;-77
2020/12/19 03:52:00;;;;;;;22.02;10.73;;;;;;;;;;5073121;28;20205;-77
2020/12/19 03:54:27;;;;;;;17.42;12.93;;;;;;;;;;5072793;28;20637;-76
2020/12/19 03:56:54;;;;;;;18.83;12.35;;;;;;;;;;5073150;28;20692;-76
2020/12/19 03:59:21;;;;;;;16.70;11.52;;;;;;;;;;5070515;28;20194;-76
2020/12/19 04:01:48;;;;;;;18.48;13.05;;;;;;;;;;5067383;28;20197;-76
2020/12/19 04:04:15;;;;;;;18.83;12.98;;;;;;;;;;5069877;28;20213;-79
2020/12/19 04:06:42;;;;;;;18.38;11.88;;;;;;;;;;5070396;28;20892;-77
2020/12/19 04:09:09;;;;;;;18.20;12.65;;;;;;;;;;5070927;28;20194;-76
2020/12/19 04:11:36;;;;;;;18.50;12.75;;;;;;;;;;5070848;28;20193;-76
2020/12/19 04:14:03;;;;;;;16.65;11.90;;;;;;;;;;5072772;28;20308;-77
2020/12/19 04:16:30;;;;;;;16.50;12.20;;;;;;;;;;5072742;28;20197;-76
2020/12/19 04:18:56;;;;;;;16.35;11.65;;;;;;;;;;5072614;28;20229;-77
2020/12/19 04:21:23;;;;;;;17.23;12.10;;;;;;;;;;5070089;28;20190;-76
2020/12/19 04:23:51;;;;;;;17.25;12.80;;;;;;;;;;5066718;28;20575;-76
2020/12/19 04:26:18;;;;;;;17.42;11.77;;;;;;;;;;5069527;28;20200;-76
2020/12/19 04:28:44;;;;;;;18.38;12.85;;;;;;;;;;5069995;28;20202;-76
2020/12/19 04:31:11;;;;;;;16.45;11.18;;;;;;;;;;5070324;28;20629;-77
2020/12/19 04:33:38;;;;;;;17.13;11.73;;;;;;;;;;5070212;28;20702;-77
2020/12/19 04:36:05;;;;;;;16.17;11.70;;;;;;;;;;5072132;28;20194;-76
2020/12/19 04:38:32;;;;;;;20.10;13.50;;;;;;;;;;5072386;28;20198;-77
2020/12/19 04:41:00;;;;;;;15.52;12.10;;;;;;;;;;5072373;28;20203;-76
2020/12/19 04:43:28;;;;;;;17.42;12.00;;;;;;;;;;5069469;28;20977;-75
2020/12/19 04:45:56;;;;;;;17.25;12.05;;;;;;;;;;5065880;28;20673;-76
2020/12/19 04:48:24;;;;;;;17.60;13.10;;;;;;;;;;5069019;28;20190;-77
2020/12/19 04:50:50;;;;;;;14.98;11.15;;;;;;;;;;5069612;28;20191;-76
2020/12/19 04:53:18;;;;;;;16.27;11.45;;;;;;;;;;5069194;28;20712;-76
2020/12/19 04:55:45;;;;;;;16.80;11.50;;;;;;;;;;5070037;28;20593;-77
2020/12/19 04:58:13;;;;;;;17.55;12.32;;;;;;;;;;5071902;28;20205;-76
2020/12/19 05:00:40;;;;;;;19.75;11.65;;;;;;;;;;5071829;28;20292;-76
2020/12/19 05:03:07;;;;;;;14.85;11.30;;;;;;;;;;5071424;28;20230;-77
2020/12/19 05:05:35;;;;;;;14.32;10.40;;;;;;;;;;5069218;28;20247;-77
2020/12/19 05:08:01;;;;;;;16.17;12.10;;;;;;;;;;5064838;28;20277;-76
2020/12/19 05:10:29;;;;;;;14.90;11.40;;;;;;;;;;5068689;28;20201;-76
2020/12/19 05:12:56;;;;;;;16.85;12.82;;;;;;;;;;5069470;28;20216;-76
2020/12/19 05:15:24;;;;;;;14.60;11.68;;;;;;;;;;5069351;28;20673;-76
2020/12/19 05:17:52;;;;;;;16.10;12.02;;;;;;;;;;5069799;28;20267;-78
2020/12/19 05:20:23;;;;;;;17.48;12.18;;;;;;;;;;5071686;28;20556;-76
2020/12/19 05:22:50;;;;;;;15.45;11.45;;;;;;;;;;5071538;28;20321;-76
2020/12/19 05:25:17;;;;;;;15.55;10.98;;;;;;;;;;5070215;28;20259;-76
2020/12/19 05:27:44;;;;;;;14.32;10.82;;;;;;;;;;5067844;28;20546;-76
2020/12/19 05:30:11;;;;;;;16.35;12.15;;;;;;;;;;5065690;28;20198;-77
2020/12/19 05:32:43;;;;;;;14.52;10.85;;;;;;;;;;5068524;28;20218;-77
2020/12/19 05:35:10;;;;;;;20.60;10.63;;;;;;;;;;5069165;28;20200;-76
2020/12/19 05:37:37;;;;;;;14.70;11.57;;;;;;;;;;5069308;28;20201;-76
2020/12/19 05:40:08;;;;;;;13.35;10.60;;;;;;;;;;5069497;28;20246;-76
2020/12/19 05:42:35;;;;;;;15.02;10.85;;;;;;;;;;5070970;28;20232;-76
2020/12/19 05:45:01;;;;;;;13.55;11.43;;;;;;;;;;5071553;28;20247;-77
2020/12/19 05:47:28;;;;;;;17.63;12.55;;;;;;;;;;5071333;28;20204;-76
2020/12/19 05:49:56;;;;;;;16.77;11.70;;;;;;;;;;5068381;28;20198;-76
2020/12/19 05:52:24;;;;;;;14.20;10.60;;;;;;;;;;5065481;28;20667;-77
2020/12/19 05:54:54;;;;;;;17.33;11.65;;;;;;;;;;5068274;28;20221;-76
2020/12/19 05:57:22;;;;;;;15.25;11.05;;;;;;;;;;5068789;28;20723;-77
2020/12/19 05:59:49;;;;;;;14.00;10.48;;;;;;;;;;5068791;28;20220;-76
2020/12/19 06:02:17;;;;;;;16.88;10.73;;;;;;;;;;5069499;28;20542;-78
2020/12/19 06:04:46;;;;;;;14.15;10.80;;;;;;;;;;5072864;28;20230;-76
2020/12/19 06:07:13;;;;;;;13.50;10.68;;;;;;;;;;5075243;28;20219;-75
2020/12/19 06:09:42;;;;;;;15.40;11.00;;;;;;;;;;5074985;28;20301;-76
2020/12/19 06:12:10;;;;;;;16.15;11.23;;;;;;;;;;5072032;28;20190;-76
2020/12/19 06:14:40;;;;;;;13.80;10.80;;;;;;;;;;5069536;28;20214;-75
2020/12/19 06:17:10;;;;;;;14.38;10.90;;;;;;;;;;5072112;28;20212;-77
2020/12/19 06:19:41;;;;;;;14.20;11.70;;;;;;;;;;5072671;28;20247;-76
2020/12/19 06:22:08;;;;;;;14.13;10.57;;;;;;;;;;5073045;28;20190;-76
2020/12/19 06:24:43;;;;;;;14.63;11.90;;;;;;;;;;5072944;28;20253;-76
2020/12/19 06:27:12;;;;;;;15.00;11.07;;;;;;;;;;5073649;28;20193;-77
2020/12/19 06:29:39;;;;;;;12.77;10.15;;;;;;;;;;5074454;28;20198;-76
2020/12/19 06:32:06;;;;;;;14.55;10.57;;;;;;;;;;5074676;28;20192;-76
2020/12/19 06:34:33;;;;;;;14.40;10.80;;;;;;;;;;5069247;28;20632;-75
2020/12/19 06:37:00;;;;;;;15.38;11.50;;;;;;;;;;5069658;28;20677;-77
2020/12/19 06:39:27;;;;;;;15.90;11.95;;;;;;;;;;5072068;28;20202;-74
2020/12/19 06:41:56;;;;;;;14.45;11.23;;;;;;;;;;5072044;28;20194;-76
2020/12/19 06:44:25;;;;;;;14.18;10.77;;;;;;;;;;5071252;28;20229;-76
2020/12/19 06:46:52;;;;;;;13.43;10.52;;;;;;;;;;5072907;28;20233;-76
2020/12/19 06:49:27;;;;;;;19.40;12.70;;;;;;;;;;5074394;28;20550;-76
2020/12/19 06:52:08;;;;;;;12.60;9.80;;;;;;;;;;5074494;28;20197;-77
2020/12/19 06:54:36;;;;;;;14.82;10.63;;;;;;;;;;5073178;28;20583;-77
2020/12/19 06:57:04;;;;;;;18.73;12.30;;;;;;;;;;5069128;28;21106;-75
2020/12/19 06:59:33;;;;;;;14.95;11.43;;;;;;;;;;5069326;28;20534;-76
2020/12/19 07:02:15;;;;;;;17.45;11.32;;;;;;;;;;5071771;28;20194;-76
2020/12/19 07:04:42;;;;;;;14.98;11.02;;;;;;;;;;5070454;28;20251;-76
2020/12/19 07:07:10;;;;;;;14.85;10.85;;;;;;;;;;5071857;28;20225;-74
2020/12/19 07:09:37;;;;;;;18.55;11.68;;;;;;;;;;5073112;28;20204;-74
2020/12/19 07:12:05;;;;;;;14.57;11.27;;;;;;;;;;5071839;28;20189;-78
2020/12/19 07:14:39;;;;;;;14.55;10.85;;;;;;;;;;5065264;28;20225;-76
2020/12/19 07:17:21;;;;;;;14.75;10.70;;;;;;;;;;5056843;28;20190;-76
2020/12/19 07:19:48;;;;;;;16.90;10.95;;;;;;;;;;5050141;28;20226;-76
2020/12/19 07:22:15;;;;;;;17.42;12.00;;;;;;;;;;5051774;28;20195;-77
2020/12/19 07:24:42;;;;;;;15.18;11.18;;;;;;;;;;5052047;28;20219;-76
2020/12/19 07:27:09;;;;;;;15.05;11.68;;;;;;;;;;5053734;28;20203;-78
2020/12/19 07:29:36;;;;;;;15.90;12.30;;;;;;;;;;5053582;28;20200;-76
2020/12/19 07:32:03;;;;;;;16.58;11.65;;;;;;;;;;5052922;28;20281;-77
2020/12/19 07:34:30;;;;;;;14.13;10.98;;;;;;;;;;5056194;28;20213;-78
2020/12/19 07:36:57;;;;;;;16.85;11.02;;;;;;;;;;5066131;28;20618;-78
2020/12/19 07:39:24;;;;;;;13.80;10.38;;;;;;;;;;5053297;28;20223;-75
2020/12/19 07:42:00;;;;;;;14.73;11.38;;;;;;;;;;5050567;28;20191;-76
2020/12/19 07:44:28;;;;;;;14.15;10.55;;;;;;;;;;5070817;28;20225;-76
2020/12/19 07:46:56;;;;;;;17.42;12.25;;;;;;;;;;5071867;28;20201;-76
2020/12/19 07:49:24;;;;;;;14.93;10.65;;;;;;;;;;5072366;28;20195;-78
2020/12/19 07:51:52;;;;;;;15.30;10.85;;;;;;;;;;5072308;28;20208;-80
2020/12/19 07:54:18;;;;;;;16.10;11.55;;;;;;;;;;5072778;28;20569;-79
2020/12/19 07:56:46;;;;;;;15.05;10.85;;;;;;;;;;5070563;28;20205;-76
2020/12/19 07:59:15;;;;;;;21.38;11.70;;;;;;;;;;5066564;28;20248;-77
2020/12/19 08:01:42;;;;;;;15.50;11.40;;;;;;;;;;5068686;28;20217;-77
2020/12/19 08:04:12;;;;;;;17.90;11.30;;;;;;;;;;5051903;28;20272;-76
2020/12/19 08:06:41;;;;;;;17.83;12.93;;;;;;;;;;5058650;28;20193;-81
2020/12/19 08:09:08;;;;;;;14.55;11.35;;;;;;;;;;5064639;28;20185;-78
2020/12/19 08:11:43;;;;;;;18.27;12.73;;;;;;;;;;5052818;28;20625;-79
2020/12/19 08:14:10;;;;;;;13.85;11.40;;;;;;;;;;5055300;28;20213;-77
2020/12/19 08:16:37;;;;;;;15.48;11.55;;;;;;;;;;5064375;28;20209;-77
2020/12/19 08:19:06;;;;;;;13.77;10.93;;;;;;;;;;5063382;28;20209;-78
2020/12/19 08:21:35;;;;;;;18.92;11.90;;;;;;;;;;5059665;28;20274;-76
2020/12/19 08:24:02;;;;;;;16.88;12.07;;;;;;;;;;5062145;28;20223;-79
2020/12/19 08:26:29;;;;;;;18.85;12.95;;;;;;;;;;5079840;28;20234;-78
2020/12/19 08:29:04;;;;;;;16.75;11.82;;;;;;;;;;5052328;28;20201;-77
2020/12/19 08:31:30;;;;;;;15.00;11.35;;;;;;;;;;5052069;28;21161;-78
2020/12/19 08:33:58;;;;;;;13.55;11.65;;;;;;;;;;5051551;28;20746;-78
2020/12/19 08:36:25;;;;;;;18.02;11.80;;;;;;;;;;5052157;28;20209;-76
2020/12/19 08:38:52;;;;;;;15.88;11.68;;;;;;;;;;5061502;28;20647;-76
2020/12/19 08:41:19;;;;;;;14.55;10.40;;;;;;;;;;5066530;28;20192;-77
2020/12/19 08:43:46;;;;;;;17.17;11.63;;;;;;;;;;5069698;28;20321;-76
2020/12/19 08:46:14;;;;;;;16.60;11.40;;;;;;;;;;5064991;28;20641;-77
2020/12/19 08:48:41;;;;;;;15.45;11.82;;;;;;;;;;5049923;28;20194;-81
2020/12/19 08:51:09;;;;;;;13.68;10.90;;;;;;;;;;5051028;28;20209;-83
2020/12/19 08:53:37;;;;;;;12.02;10.05;;;;;;;;;;5051765;28;20584;-80
2020/12/19 08:56:25;;;;;;;16.58;12.05;;;;;;;;;;5051960;28;20228;-82
2020/12/19 08:58:53;;;;;;;13.18;9.90;;;;;;;;;;5050845;28;20200;-78
2020/12/19 09:01:19;;;;;;;12.73;10.82;;;;;;;;;;5060019;28;20215;-80
2020/12/19 09:03:46;;;;;;;14.73;10.35;;;;;;;;;;5065248;28;20654;-77
2020/12/19 09:06:14;;;;;;;15.18;10.90;;;;;;;;;;5069062;28;20235;-78
2020/12/19 09:08:44;;;;;;;12.20;10.18;;;;;;;;;;5055021;28;20204;-81
2020/12/19 09:11:22;;;;;;;13.30;10.57;;;;;;;;;;5050007;28;20205;-81
2020/12/19 09:13:49;;;;;;;12.48;10.27;;;;;;;;;;5049239;28;20244;-80
2020/12/19 09:16:16;;;;;;;14.20;10.15;;;;;;;;;;5050934;28;20196;-79
2020/12/19 09:18:43;;;;;;;14.60;10.88;;;;;;;;;;5051200;28;20194;-77
2020/12/19 09:21:10;;;;;;;14.50;10.63;;;;;;;;;;5051488;28;20602;-75
2020/12/19 09:23:38;;;;;;;13.32;10.57;;;;;;;;;;5055532;28;20657;-78
2020/12/19 09:26:06;;;;;;;13.63;10.05;;;;;;;;;;5064052;28;20225;-77
2020/12/19 09:28:33;;;;;;;13.37;9.93;;;;;;;;;;5067518;28;20696;-78
2020/12/19 09:31:00;;;;;;;12.38;9.98;;;;;;;;;;5068311;28;20452;-78
2020/12/19 09:33:27;;;;;;;12.20;9.43;;;;;;;;;;5069577;28;20273;-77
2020/12/19 09:35:54;;;;;;;13.37;10.13;;;;;;;;;;5068630;28;20526;-80
2020/12/19 09:38:21;;;;;;;12.63;9.97;;;;;;;;;;5071122;28;20461;-78
2020/12/19 09:40:48;;;;;;;13.25;10.20;;;;;;;;;;5071060;28;21035;-77
2020/12/19 09:43:16;;;;;;;11.48;9.05;;;;;;;;;;5066879;28;20236;-76
2020/12/19 09:45:42;;;;;;;13.03;9.20;;;;;;;;;;5061982;28;20600;-78
2020/12/19 09:48:09;;;;;;;13.00;9.85;;;;;;;;;;5065330;28;20546;-78
2020/12/19 09:50:36;;;;;;;13.90;10.55;;;;;;;;;;5065208;28;20200;-83
2020/12/19 09:53:03;;;;;;;12.50;9.55;;;;;;;;;;5049753;28;20228;-79
2020/12/19 09:55:31;;;;;;;11.90;9.17;;;;;;;;;;5054693;28;20648;-77
2020/12/19 09:57:59;;;;;;;12.27;9.37;;;;;;;;;;5067908;28;20467;-77
2020/12/19 10:00:27;;;;;;;12.33;9.10;;;;;;;;;;5068101;28;20483;-79
2020/12/19 10:02:54;;;;;;;12.00;9.00;;;;;;;;;;5067260;28;20553;-80
2020/12/19 10:05:21;;;;;;;11.07;9.07;;;;;;;;;;5065276;28;20463;-78
2020/12/19 10:07:48;;;;;;;12.90;9.37;;;;;;;;;;5061536;28;20207;-77
2020/12/19 10:10:15;;;;;;;12.05;9.13;;;;;;;;;;5064311;28;20443;-76
2020/12/19 10:12:42;;;;;;;12.70;9.77;;;;;;;;;;5065562;28;20198;-78
2020/12/19 10:15:11;;;;;;;11.20;9.10;;;;;;;;;;5066069;28;20454;-76
2020/12/19 10:17:39;;;;;;;12.77;10.00;;;;;;;;;;5065892;28;21142;-76
2020/12/19 10:20:06;;;;;;;12.03;8.50;;;;;;;;;;5067905;28;20471;-77
2020/12/19 10:22:33;;;;;;;10.77;7.90;;;;;;;;;;5067409;28;20838;-80
2020/12/19 10:25:00;;;;;;;10.30;8.47;;;;;;;;;;5067366;28;20491;-79
2020/12/19 10:27:26;;;;;;;12.67;7.90;;;;;;;;;;5066551;28;20759;-79
2020/12/19 10:29:53;;;;;;;11.37;8.50;;;;;;;;;;5061457;28;20443;-77
2020/12/19 10:32:20;;;;;;;9.17;7.63;;;;;;;;;;5065784;28;21044;-77
2020/12/19 10:34:47;;;;;;;11.73;7.70;;;;;;;;;;5067999;28;20467;-77
2020/12/19 10:37:14;;;;;;;10.70;7.60;;;;;;;;;;5068776;28;20527;-79
2020/12/19 10:39:41;;;;;;;9.97;7.40;;;;;;;;;;5067616;28;20936;-77
2020/12/19 10:42:08;;;;;;;10.10;7.40;;;;;;;;;;5070659;28;20824;-77
2020/12/19 10:44:35;;;;;;;9.70;7.60;;;;;;;;;;5070459;28;21005;-78
2020/12/19 10:47:01;;;;;;;8.90;7.53;;;;;;;;;;5070641;28;20992;-75
2020/12/19 10:49:28;;;;;;;10.17;7.97;;;;;;;;;;5069775;28;20450;-77
2020/12/19 10:51:56;;;;;;;10.40;7.10;;;;;;;;;;5068322;28;20436;-77
2020/12/19 10:54:23;;;;;;;8.47;6.77;;;;;;;;;;5070455;28;20991;-77
2020/12/19 10:56:50;;;;;;;9.87;7.20;;;;;;;;;;5072142;28;20436;-77
2020/12/19 10:59:17;;;;;;;8.53;6.83;;;;;;;;;;5071978;28;20444;-76
2020/12/19 11:01:45;;;;;;;9.50;6.97;;;;;;;;;;5071645;28;20436;-75
2020/12/19 11:04:12;;;;;;;8.83;6.50;;;;;;;;;;5073635;28;20822;-76
2020/12/19 11:06:39;;;;;;;7.77;6.97;;;;;;;;;;5074063;28;20800;-77
2020/12/19 11:09:06;;;;;;;8.07;6.20;;;;;;;;;;5074046;28;20451;-78
2020/12/19 11:11:33;;;;;;;9.70;6.53;;;;;;;;;;5068539;28;20432;-76
2020/12/19 11:14:00;;;;;;;8.53;6.23;;;;;;;;;;5067785;28;20460;-78
2020/12/19 11:16:27;;;;;;;7.30;6.23;;;;;;;;;;5071253;28;20527;-78
2020/12/19 11:18:55;;;;;;;10.73;6.70;;;;;;;;;;5051597;28;20536;-78
2020/12/19 11:21:21;;;;;;;7.10;5.90;;;;;;;;;;5052052;28;20848;-78
2020/12/19 11:23:48;;;;;;;7.50;5.80;;;;;;;;;;5051907;28;20495;-76
2020/12/19 11:26:19;;;;;;;6.20;5.60;;;;;;;;;;5053549;28;20452;-79
2020/12/19 11:28:47;;;;;;;9.73;5.80;;;;;;;;;;5051776;28;20456;-80
2020/12/19 11:31:15;;;;;;;9.00;5.10;;;;;;;;;;5053674;28;20452;-76
2020/12/19 11:33:42;;;;;;;6.60;5.97;;;;;;;;;;5060753;28;20518;-78
2020/12/19 11:36:09;;;;;;;8.93;6.30;;;;;;;;;;5068001;28;20439;-75
2020/12/19 11:38:35;;;;;;;9.50;6.70;;;;;;;;;;5056105;28;20494;-77
2020/12/19 11:41:02;;;;;;;7.70;5.87;;;;;;;;;;5050792;28;20440;-80
2020/12/19 11:43:30;;;;;;;7.33;5.97;;;;;;;;;;5051040;28;20858;-77
2020/12/19 11:45:57;;;;;;;11.07;5.57;;;;;;;;;;5051916;28;20968;-78
2020/12/19 11:48:23;;;;;;;7.20;5.57;;;;;;;;;;5053028;28;20447;-75
2020/12/19 11:50:50;;;;;;;8.23;5.30;;;;;;;;;;5053015;28;20584;-76
2020/12/19 11:53:17;;;;;;;8.17;5.60;;;;;;;;;;5052560;28;20462;-76
2020/12/19 11:55:44;;;;;;;5.70;5.13;;;;;;;;;;5057223;28;20439;-76
2020/12/19 11:58:11;;;;;;;6.73;5.47;;;;;;;;;;5066787;28;20509;-83
2020/12/19 12:00:38;;;;;;;6.67;4.80;;;;;;;;;;5069483;28;20440;-77
2020/12/19 12:03:07;;;;;;;6.07;4.77;;;;;;;;;;5070709;28;21035;-78
2020/12/19 12:05:34;;;;;;;5.97;5.10;;;;;;;;;;5070690;28;20443;-76
2020/12/19 12:08:00;;;;;;;6.40;5.20;;;;;;;;;;5058535;28;20879;-77
2020/12/19 12:10:27;;;;;;;5.17;4.63;;;;;;;;;;5051858;28;20433;-76
2020/12/19 12:12:54;;;;;;;5.20;4.47;;;;;;;;;;5052543;28;21031;-77
2020/12/19 12:15:21;;;;;;;7.17;4.80;;;;;;;;;;5051343;28;20441;-76
2020/12/19 12:17:49;;;;;;;5.53;4.43;;;;;;;;;;5054743;28;20498;-76
2020/12/19 12:20:17;;;;;;;5.40;4.63;;;;;;;;;;5066927;28;20421;-76
2020/12/19 12:22:44;;;;;;;4.50;3.63;;;;;;;;;;5069256;28;20432;-80
2020/12/19 12:25:11;;;;;;;6.03;4.50;;;;;;;;;;5070292;28;20494;-77
2020/12/19 12:27:38;;;;;;;4.87;3.93;;;;;;;;;;5070709;28;20440;-77
2020/12/19 12:30:05;;;;;;;7.67;4.60;;;;;;;;;;5070561;28;20444;-76
2020/12/19 12:32:32;;;;;;;7.17;3.90;;;;;;;;;;5072344;28;20447;-76
2020/12/19 12:34:59;;;;;;;6.83;4.33;;;;;;;;;;5072452;28;20539;-80
2020/12/19 12:37:26;;;;;;;6.70;4.50;;;;;;;;;;5072186;28;20947;-77
2020/12/19 12:39:53;;;;;;;5.80;4.60;;;;;;;;;;5071690;28;20435;-82
2020/12/19 12:42:20;;;;;;;5.87;4.27;;;;;;;;;;5066333;28;20468;-83
2020/12/19 12:44:47;;;;;;;5.80;4.50;;;;;;;;;;5068143;28;20815;-80
2020/12/19 12:47:14;;;;;;;5.80;4.60;;;;;;;;;;5069750;28;20447;-76
2020/12/19 12:49:41;;;;;;;5.37;4.20;;;;;;;;;;5069887;28;20432;-77
2020/12/19 12:52:08;;;;;;;5.50;3.67;;;;;;;;;;5070086;28;20447;-79
2020/12/19 12:54:35;;;;;;;4.90;3.10;;;;;;;;;;5071337;28;20811;-76
2020/12/19 12:57:02;;;;;;;4.13;3.10;;;;;;;;;;5072750;28;20468;-79
2020/12/19 12:59:29;;;;;;;3.80;2.90;;;;;;;;;;5073035;28;20567;-80
2020/12/19 13:01:56;;;;;;;5.13;3.33;;;;;;;;;;5072413;28;20490;-80
2020/12/19 13:04:23;;;;;;;3.77;2.87;;;;;;;;;;5066091;28;20472;-83
2020/12/19 13:06:50;;;;;;;3.40;3.07;;;;;;;;;;5067620;28;20824;-75
2020/12/19 13:09:18;;;;;;;4.40;3.03;;;;;;;;;;5069862;28;20446;-88
2020/12/19 13:11:45;;;;;;;3.67;2.80;;;;;;;;;;5069827;28;20447;-77
2020/12/19 13:14:12;;;;;;;4.13;3.00;;;;;;;;;;5069611;28;20448;-88
2020/12/19 13:16:39;;;;;;;10.63;3.00;;;;;;;;;;5071118;28;20990;-81
2020/12/19 13:19:07;;;;;;;3.47;3.17;;;;;;;;;;5072040;28;20447;-76
2020/12/19 13:21:34;;;;;;;2.87;2.57;;;;;;;;;;5071867;28;20440;-84
2020/12/19 13:24:01;;;;;;;5.93;3.67;;;;;;;;;;5071428;28;20485;-79
2020/12/19 13:26:28;;;;;;;4.47;3.20;;;;;;;;;;5066220;28;20460;-79
2020/12/19 13:28:55;;;;;;;4.17;3.07;;;;;;;;;;5066816;28;20432;-79
2020/12/19 13:31:22;;;;;;;2.77;2.43;;;;;;;;;;5069500;28;20452;-79
2020/12/19 13:33:49;;;;;;;4.73;3.60;;;;;;;;;;5069296;28;20486;-78
2020/12/19 13:36:15;;;;;;;5.63;3.73;;;;;;;;;;5069663;28;20447;-76
2020/12/19 13:38:42;;;;;;;4.10;3.70;;;;;;;;;;5070647;28;20470;-78
2020/12/19 13:41:12;;;;;;;5.63;4.20;;;;;;;;;;5071597;28;20475;-78
2020/12/19 13:43:40;;;;;;;5.40;4.20;;;;;;;;;;5071128;28;20495;-81
2020/12/19 13:46:07;;;;;;;5.20;4.13;;;;;;;;;;5071456;28;20542;-77
2020/12/19 13:48:33;;;;;;;5.67;4.40;;;;;;;;;;5066607;28;20450;-75
2020/12/19 13:51:00;;;;;;;5.00;4.20;;;;;;;;;;5066620;28;20439;-82
2020/12/19 13:53:27;;;;;;;6.90;3.83;;;;;;;;;;5069105;28;20513;-79
2020/12/19 13:55:54;;;;;;;4.53;3.53;;;;;;;;;;5069018;28;20447;-79
2020/12/19 13:58:21;;;;;;;5.70;3.87;;;;;;;;;;5069385;28;20515;-76
2020/12/19 14:00:48;;;;;;;6.67;3.77;;;;;;;;;;5070045;28;20454;-81
2020/12/19 14:03:15;;;;;;;4.60;3.50;;;;;;;;;;5071034;28;20551;-76
2020/12/19 14:05:42;;;;;;;5.50;3.90;;;;;;;;;;5071345;28;20444;-79
2020/12/19 14:08:09;;;;;;;4.17;3.40;;;;;;;;;;5071197;28;20527;-81
2020/12/19 14:10:35;;;;;;;4.67;3.53;;;;;;;;;;5066860;28;20440;-79
2020/12/19 14:13:02;;;;;;;6.40;3.20;;;;;;;;;;5067159;28;20863;-78
2020/12/19 14:15:29;;;;;;;7.43;3.80;;;;;;;;;;5071067;28;20450;-79
2020/12/19 14:17:57;;;;;;;4.50;3.50;;;;;;;;;;5069230;28;20444;-84
2020/12/19 14:20:23;;;;;;;7.10;3.70;;;;;;;;;;5069368;28;20435;-81
2020/12/19 14:22:50;;;;;;;5.70;3.80;;;;;;;;;;5070162;28;20456;-83
2020/12/19 14:25:17;;;;;;;8.33;4.57;;;;;;;;;;5071779;28;20541;-76
2020/12/19 14:27:44;;;;;;;4.40;3.30;;;;;;;;;;5074912;28;20941;-78